Newport, Kentucky
Current Conditions -  °F | °C
As of 2:53 PM on Thursday 30 Oct 2014 (Local Time) from KLUK Reporting Station
Clear Clear  
Wind Chill: 53°   Ceiling: Unl
Heat Index: 53°   Visibility: 10mi
Dew Point: 34°   Wind: 5mph
Humidity: 48%   Direction: 240°WSW
Pressure: 30.1"   Gusts: NA
Location:  39.09°N, 84.49°W
Report Text: KLUK 301853Z 24004KT 10SM CLR 12/01 A3010 RMK AO2 SLP194 T01170011
Loading
Personal Weather Stations






























Interactive Weather Map
Tropical Storm Tracking
New forecast layout! Learn more

10-Day Weather Forecast

Advertisements
Track Severe Weather on mobile